createdAt,value
2018-09-15T00:00:30.590Z,93.16
2018-09-15T00:02:59.293Z,92.79
2018-09-15T00:05:28.084Z,93.37
2018-09-15T00:07:56.804Z,93.58
2018-09-15T00:10:25.505Z,93.83
2018-09-15T00:12:54.300Z,94.19
2018-09-15T00:15:23.004Z,94.01
2018-09-15T00:17:51.826Z,94.04
2018-09-15T00:20:20.572Z,94.09
2018-09-15T00:22:49.304Z,94.33
2018-09-15T00:25:18.162Z,94.46
2018-09-15T00:27:46.855Z,94.52
2018-09-15T00:30:15.526Z,94.53
2018-09-15T00:32:44.226Z,94.42
2018-09-15T00:35:13.903Z,94.37
2018-09-15T00:37:42.593Z,94.52
2018-09-15T00:40:11.316Z,94.60
2018-09-15T00:42:39.990Z,94.59
2018-09-15T00:45:08.680Z,94.24
2018-09-15T00:47:37.321Z,94.49
2018-09-15T00:50:06.057Z,94.42
2018-09-15T00:52:34.724Z,94.52
2018-09-15T00:55:03.428Z,94.19
2018-09-15T00:57:32.124Z,94.26
2018-09-15T01:00:00.810Z,94.45
2018-09-15T01:02:29.537Z,94.07
2018-09-15T01:04:58.223Z,94.14
2018-09-15T01:07:26.893Z,93.72
2018-09-15T01:09:55.656Z,93.82
2018-09-15T01:12:24.340Z,93.61
2018-09-15T01:14:53.117Z,93.84
2018-09-15T01:17:21.816Z,93.58
2018-09-15T01:19:50.569Z,93.58
2018-09-15T01:22:19.275Z,93.47
2018-09-15T01:24:47.960Z,93.43
2018-09-15T01:27:16.641Z,93.15
2018-09-15T01:29:45.395Z,93.10
2018-09-15T01:32:14.112Z,93.25
2018-09-15T01:34:42.803Z,93.20
2018-09-15T01:37:11.493Z,93.26
2018-09-15T01:39:40.178Z,93.52
2018-09-15T01:42:08.896Z,93.19
2018-09-15T01:44:37.605Z,93.31
2018-09-15T01:47:06.306Z,93.35
2018-09-15T01:49:35.035Z,93.22
2018-09-15T01:52:03.785Z,93.19
2018-09-15T01:54:32.467Z,93.20
2018-09-15T01:57:01.151Z,93.27
2018-09-15T01:59:29.888Z,93.47
2018-09-15T02:01:58.575Z,93.52
2018-09-15T02:04:27.288Z,93.61
2018-09-15T02:06:55.988Z,93.79
2018-09-15T02:09:24.673Z,93.93
2018-09-15T02:11:53.385Z,93.98
2018-09-15T02:14:22.047Z,93.94
2018-09-15T02:16:50.775Z,94.03
2018-09-15T02:19:19.461Z,93.87
2018-09-15T02:21:48.160Z,93.77
2018-09-15T02:24:16.840Z,93.85
2018-09-15T02:26:45.520Z,93.87
2018-09-15T02:29:14.215Z,93.79
2018-09-15T02:31:42.961Z,93.92
2018-09-15T02:34:11.662Z,94.04
2018-09-15T02:36:40.437Z,94.12
2018-09-15T02:39:09.763Z,94.00
2018-09-15T02:41:38.448Z,93.55
2018-09-15T02:44:07.237Z,93.71
2018-09-15T02:46:35.915Z,93.70
2018-09-15T02:49:04.626Z,93.57
2018-09-15T02:51:33.301Z,93.84
2018-09-15T02:54:02.085Z,93.68
2018-09-15T02:56:30.761Z,93.78
2018-09-15T02:58:59.499Z,93.92
2018-09-15T03:01:28.241Z,93.90
2018-09-15T03:03:56.984Z,93.92
2018-09-15T03:06:25.672Z,94.08
2018-09-15T03:08:54.366Z,94.31
2018-09-15T03:11:23.056Z,94.21
2018-09-15T03:13:51.759Z,94.48
2018-09-15T03:16:20.448Z,94.59
2018-09-15T03:18:49.179Z,94.90
2018-09-15T03:21:17.881Z,95.08
2018-09-15T03:23:46.597Z,95.12
2018-09-15T03:26:15.317Z,95.16
2018-09-15T03:28:44.044Z,95.11
2018-09-15T03:31:12.788Z,95.36
2018-09-15T03:33:41.490Z,95.28
2018-09-15T03:36:10.155Z,95.31
2018-09-15T03:38:38.857Z,95.20
2018-09-15T03:41:07.630Z,95.15
2018-09-15T03:43:36.279Z,95.06
2018-09-15T03:46:04.977Z,94.75
2018-09-15T03:48:33.663Z,94.53
2018-09-15T03:51:02.324Z,94.46
2018-09-15T03:53:30.996Z,94.52
2018-09-15T03:55:59.690Z,94.59
2018-09-15T03:58:28.384Z,94.31
2018-09-15T04:00:57.049Z,94.40
2018-09-15T04:03:25.767Z,94.28
2018-09-15T04:05:54.432Z,94.29
2018-09-15T04:08:23.092Z,93.77
2018-09-15T04:10:51.777Z,93.73
2018-09-15T04:13:20.444Z,93.42
2018-09-15T04:15:49.238Z,93.68
2018-09-15T04:18:18.028Z,93.47
2018-09-15T04:20:48.228Z,93.51
2018-09-15T04:23:17.392Z,93.61
2018-09-15T04:25:46.499Z,93.85
2018-09-15T04:28:15.203Z,94.22
2018-09-15T04:30:43.927Z,94.45
2018-09-15T04:33:12.607Z,94.59
2018-09-15T04:35:41.497Z,94.86
2018-09-15T04:38:10.179Z,95.01
2018-09-15T04:40:38.864Z,95.26
2018-09-15T04:43:10.103Z,95.28
2018-09-15T04:45:38.773Z,95.17
2018-09-15T04:48:07.459Z,95.82
2018-09-15T04:50:36.225Z,96.07
2018-09-15T04:53:04.877Z,96.79
2018-09-15T04:55:33.535Z,96.67
2018-09-15T04:58:02.259Z,96.75
2018-09-15T05:00:31.020Z,97.38
2018-09-15T05:02:59.717Z,97.37
2018-09-15T05:05:28.412Z,97.50
2018-09-15T05:07:57.086Z,97.43
2018-09-15T05:10:25.877Z,97.35
2018-09-15T05:12:54.559Z,97.47
2018-09-15T05:15:23.251Z,97.17
2018-09-15T05:17:52.100Z,97.00
2018-09-15T05:20:20.813Z,96.47
2018-09-15T05:22:49.470Z,96.10
2018-09-15T05:25:18.144Z,95.67
2018-09-15T05:27:46.838Z,95.40
2018-09-15T05:30:16.560Z,95.43
2018-09-15T05:32:45.261Z,95.69
2018-09-15T05:35:14.008Z,95.39
2018-09-15T05:37:42.715Z,95.69
2018-09-15T05:40:11.383Z,95.88
2018-09-15T05:42:40.065Z,96.18
2018-09-15T05:45:08.777Z,96.29
2018-09-15T05:47:37.483Z,96.64
2018-09-15T05:50:06.475Z,96.66
2018-09-15T05:52:35.188Z,96.99
2018-09-15T05:55:03.922Z,96.89
2018-09-15T05:57:32.602Z,97.07
2018-09-15T06:00:01.290Z,96.93
2018-09-15T06:02:29.971Z,97.06
2018-09-15T06:04:58.700Z,96.90
2018-09-15T06:07:27.426Z,96.79
2018-09-15T06:09:56.236Z,97.05
2018-09-15T06:12:24.958Z,97.06
2018-09-15T06:14:53.649Z,97.13
2018-09-15T06:17:22.344Z,97.06
2018-09-15T06:19:51.037Z,97.16
2018-09-15T06:22:19.732Z,97.19
2018-09-15T06:24:48.483Z,97.05
2018-09-15T06:27:17.198Z,97.32
2018-09-15T06:29:45.940Z,97.37
2018-09-15T06:32:14.712Z,97.02
2018-09-15T06:34:43.411Z,97.34
2018-09-15T06:37:12.144Z,97.35
2018-09-15T06:39:40.820Z,97.37
2018-09-15T06:42:09.520Z,97.52
2018-09-15T06:44:38.199Z,97.78
2018-09-15T06:47:06.915Z,97.79
2018-09-15T06:49:35.617Z,97.99
2018-09-15T06:52:04.360Z,97.98
2018-09-15T06:54:33.144Z,97.85
2018-09-15T06:57:01.884Z,97.92
2018-09-15T06:59:30.567Z,98.01
2018-09-15T07:01:59.321Z,98.16
2018-09-15T07:04:28.026Z,98.23
2018-09-15T07:06:56.751Z,98.21
2018-09-15T07:09:25.995Z,98.31
2018-09-15T07:11:54.757Z,98.63
2018-09-15T07:14:23.441Z,99.15
2018-09-15T07:16:52.649Z,99.57
2018-09-15T07:19:21.350Z,99.85
2018-09-15T07:21:51.443Z,99.59
2018-09-15T07:24:20.162Z,99.98
2018-09-15T07:26:48.864Z,100.00
2018-09-15T07:29:17.552Z,99.91
2018-09-15T07:31:46.309Z,99.87
2018-09-15T07:34:14.993Z,99.26
2018-09-15T07:36:43.724Z,98.46
2018-09-15T07:39:12.660Z,98.63
2018-09-15T07:41:41.680Z,97.85
2018-09-15T07:44:10.375Z,98.06
2018-09-15T07:46:39.139Z,97.83
2018-09-15T07:49:07.858Z,97.52
2018-09-15T07:51:36.667Z,97.79
2018-09-15T07:54:05.296Z,97.90
2018-09-15T07:56:33.999Z,97.90
2018-09-15T07:59:02.760Z,97.74
2018-09-15T08:01:31.477Z,97.40
2018-09-15T08:04:00.276Z,97.23
2018-09-15T08:06:29.086Z,96.65
2018-09-15T08:08:57.766Z,96.53
2018-09-15T08:11:26.458Z,96.07
2018-09-15T08:13:55.176Z,94.82
2018-09-15T08:16:24.053Z,94.31
2018-09-15T08:18:52.772Z,93.49
2018-09-15T08:21:21.479Z,93.56
2018-09-15T08:23:50.205Z,93.99
2018-09-15T08:26:18.936Z,93.60
2018-09-15T08:31:23.136Z,92.96
2018-09-15T08:33:51.859Z,93.24
2018-09-15T08:36:20.541Z,93.36
2018-09-15T08:38:49.262Z,92.22
2018-09-15T08:41:18.055Z,91.21
2018-09-15T08:43:46.772Z,91.57
2018-09-15T08:46:15.489Z,91.25
2018-09-15T08:48:44.208Z,90.31
2018-09-15T08:51:13.006Z,90.53
2018-09-15T08:53:41.820Z,90.85
2018-09-15T08:56:10.603Z,89.02
2018-09-15T08:58:39.228Z,89.16
2018-09-15T09:01:07.960Z,89.50
2018-09-15T09:03:36.684Z,89.59
2018-09-15T09:06:05.432Z,89.36
2018-09-15T09:08:34.170Z,89.18
2018-09-15T09:11:02.867Z,89.30
2018-09-15T09:13:31.540Z,87.72
2018-09-15T09:16:00.217Z,88.76
2018-09-15T09:18:28.982Z,88.62
2018-09-15T09:20:57.668Z,88.68
2018-09-15T09:23:26.407Z,88.05
2018-09-15T09:25:55.070Z,88.16
2018-09-15T09:28:23.757Z,88.11
2018-09-15T09:30:52.480Z,86.93
2018-09-15T09:33:21.209Z,86.13
2018-09-15T09:35:49.831Z,86.52
2018-09-15T09:38:18.571Z,86.12
2018-09-15T09:40:47.246Z,85.89
2018-09-15T09:43:16.004Z,85.12
2018-09-15T09:45:44.699Z,85.75
2018-09-15T09:48:13.484Z,85.93
2018-09-15T09:50:42.151Z,85.75
2018-09-15T09:53:10.874Z,84.76
2018-09-15T09:55:39.559Z,84.79
2018-09-15T09:58:08.288Z,84.80
2018-09-15T10:00:42.089Z,85.36
2018-09-15T10:03:10.776Z,84.43
2018-09-15T10:05:39.484Z,83.83
2018-09-15T10:08:08.168Z,84.16
2018-09-15T10:10:36.849Z,84.00
2018-09-15T10:13:05.516Z,81.97
2018-09-15T10:15:34.190Z,82.87
2018-09-15T10:18:02.835Z,81.66
2018-09-15T10:20:31.476Z,81.92
2018-09-15T10:23:00.192Z,81.36
2018-09-15T10:25:28.866Z,81.16
2018-09-15T10:27:57.543Z,80.99
2018-09-15T10:30:26.240Z,80.93
2018-09-15T10:32:54.952Z,81.76
2018-09-15T10:35:23.627Z,82.22
2018-09-15T10:37:52.310Z,82.17
2018-09-15T10:40:20.966Z,82.50
2018-09-15T10:42:49.678Z,81.87
2018-09-15T10:45:18.376Z,81.72
2018-09-15T10:47:47.129Z,81.74
2018-09-15T10:50:15.960Z,80.94
2018-09-15T10:52:44.829Z,80.71
2018-09-15T10:55:13.551Z,79.71
2018-09-15T10:57:42.224Z,78.41
2018-09-15T11:00:10.969Z,78.42
2018-09-15T11:02:39.671Z,76.83
2018-09-15T11:05:08.393Z,77.63
2018-09-15T11:07:37.095Z,77.51
2018-09-15T11:10:05.846Z,77.27
2018-09-15T11:12:34.535Z,77.72
2018-09-15T11:15:03.248Z,77.50
2018-09-15T11:17:31.985Z,77.53
2018-09-15T11:20:00.668Z,77.87
2018-09-15T11:22:29.582Z,78.33
2018-09-15T11:24:58.273Z,76.68
2018-09-15T11:27:27.057Z,76.16
2018-09-15T11:29:55.744Z,76.48
2018-09-15T11:32:24.386Z,76.51
2018-09-15T11:34:53.088Z,76.99
2018-09-15T11:37:21.769Z,76.24
2018-09-15T11:39:50.481Z,76.36
2018-09-15T11:42:19.184Z,76.21
2018-09-15T11:44:47.912Z,75.53
2018-09-15T11:47:16.604Z,75.82
2018-09-15T11:49:45.313Z,74.56
2018-09-15T11:52:13.984Z,73.53
2018-09-15T11:54:42.753Z,72.27
2018-09-15T11:57:11.443Z,71.03
2018-09-15T11:59:40.155Z,69.77
2018-09-15T12:02:08.959Z,70.33
2018-09-15T12:04:37.669Z,69.51
2018-09-15T12:07:06.352Z,68.73
2018-09-15T12:09:35.064Z,67.55
2018-09-15T12:12:03.792Z,68.67
2018-09-15T12:14:32.503Z,68.08
2018-09-15T12:17:01.188Z,68.10
2018-09-15T12:19:29.901Z,67.27
2018-09-15T12:21:58.577Z,66.51
2018-09-15T12:24:27.277Z,66.70
2018-09-15T12:26:55.980Z,65.29
2018-09-15T12:29:24.685Z,65.78
2018-09-15T12:31:53.375Z,65.53
2018-09-15T12:34:22.099Z,63.62
2018-09-15T12:36:50.808Z,63.32
2018-09-15T12:39:19.558Z,62.34
2018-09-15T12:41:48.213Z,62.62
2018-09-15T12:44:16.908Z,61.16
2018-09-15T12:46:45.623Z,60.56
2018-09-15T12:49:14.305Z,60.13
2018-09-15T12:51:43.023Z,59.88
2018-09-15T12:54:11.743Z,59.35
2018-09-15T12:56:40.503Z,59.22
2018-09-15T12:59:09.217Z,59.11
2018-09-15T13:01:38.083Z,58.69
2018-09-15T13:04:06.812Z,57.75
2018-09-15T13:06:35.525Z,57.08
2018-09-15T13:09:04.964Z,57.51
2018-09-15T13:11:33.647Z,57.86
2018-09-15T13:14:02.364Z,57.14
2018-09-15T13:16:31.117Z,58.80
2018-09-15T13:18:59.858Z,59.68
2018-09-15T13:21:28.594Z,59.73
2018-09-15T13:23:57.319Z,60.27
2018-09-15T13:26:26.026Z,60.27
2018-09-15T13:28:54.963Z,60.62
2018-09-15T13:31:23.668Z,60.83
2018-09-15T13:33:52.500Z,60.90
2018-09-15T13:36:21.252Z,61.37
2018-09-15T13:38:50.008Z,61.84
2018-09-15T13:41:18.843Z,62.78
2018-09-15T13:43:47.572Z,63.54
2018-09-15T13:46:16.335Z,63.95
2018-09-15T13:48:45.100Z,63.86
2018-09-15T13:51:13.898Z,64.19
2018-09-15T13:53:42.776Z,63.96
2018-09-15T13:56:11.957Z,64.76
2018-09-15T13:58:40.771Z,64.81
2018-09-15T14:01:09.493Z,64.57
2018-09-15T14:03:38.349Z,64.64
2018-09-15T14:06:07.143Z,65.25
2018-09-15T14:08:35.904Z,64.43
2018-09-15T14:11:04.675Z,64.45
2018-09-15T14:13:33.484Z,64.80
2018-09-15T14:16:02.393Z,65.39
2018-09-15T14:18:31.237Z,65.05
2018-09-15T14:21:00.030Z,65.41
2018-09-15T14:23:28.870Z,66.09
2018-09-15T14:25:57.540Z,65.81
2018-09-15T14:28:26.398Z,66.30
2018-09-15T14:30:55.166Z,66.50
2018-09-15T14:33:23.989Z,66.59
2018-09-15T14:35:52.866Z,66.86
2018-09-15T14:38:21.771Z,67.96
2018-09-15T14:40:50.900Z,67.69
2018-09-15T14:43:19.679Z,67.50
2018-09-15T14:45:48.775Z,67.40
2018-09-15T14:48:17.514Z,67.79
2018-09-15T14:50:46.434Z,67.52
2018-09-15T14:53:15.249Z,67.52
2018-09-15T14:55:44.070Z,67.18
2018-09-15T14:58:12.749Z,67.05
2018-09-15T15:00:41.518Z,67.41
2018-09-15T15:03:11.265Z,68.25
2018-09-15T15:05:40.177Z,68.54
2018-09-15T15:08:09.230Z,69.47
2018-09-15T15:10:38.080Z,69.47
2018-09-15T15:13:06.886Z,70.04
2018-09-15T15:15:35.649Z,70.11
2018-09-15T15:18:04.462Z,71.40
2018-09-15T15:20:33.127Z,70.87
2018-09-15T15:23:01.888Z,70.91
2018-09-15T15:25:30.768Z,70.88
2018-09-15T15:27:59.533Z,70.78
2018-09-15T15:30:28.346Z,70.57
2018-09-15T15:32:57.218Z,70.05
2018-09-15T15:35:26.166Z,70.34
2018-09-15T15:37:55.032Z,69.70
2018-09-15T15:40:23.904Z,69.76
2018-09-15T15:42:52.726Z,70.26
2018-09-15T15:45:21.620Z,70.20
2018-09-15T15:47:50.433Z,71.25
2018-09-15T15:50:19.156Z,71.84
2018-09-15T15:52:47.860Z,71.65
2018-09-15T15:55:16.545Z,71.65
2018-09-15T15:57:45.266Z,72.10
2018-09-15T16:00:14.282Z,72.48
2018-09-15T16:02:43.006Z,73.40
2018-09-15T16:05:11.765Z,73.92
2018-09-15T16:07:40.650Z,74.44
2018-09-15T16:10:09.420Z,74.38
2018-09-15T16:12:38.267Z,74.89
2018-09-15T16:15:07.145Z,74.96
2018-09-15T16:17:35.868Z,75.06
2018-09-15T16:20:04.823Z,75.43
2018-09-15T16:22:33.602Z,75.32
2018-09-15T16:25:02.371Z,75.52
2018-09-15T16:27:31.155Z,76.13
2018-09-15T16:29:59.909Z,75.78
2018-09-15T16:32:28.721Z,75.51
2018-09-15T16:34:57.541Z,75.40
2018-09-15T16:37:26.334Z,75.71
2018-09-15T16:39:55.043Z,75.70
2018-09-15T16:42:23.836Z,75.87
2018-09-15T16:44:52.623Z,75.92
2018-09-15T16:47:21.385Z,76.10
2018-09-15T16:49:50.184Z,76.30
2018-09-15T16:52:18.947Z,76.21
2018-09-15T16:54:47.629Z,76.38
2018-09-15T16:57:16.421Z,76.63
2018-09-15T16:59:45.223Z,76.89
2018-09-15T17:02:14.079Z,76.97
2018-09-15T17:04:42.830Z,77.21
2018-09-15T17:07:11.682Z,77.41
2018-09-15T17:09:40.463Z,77.70
2018-09-15T17:12:09.293Z,77.71
2018-09-15T17:14:38.034Z,77.80
2018-09-15T17:17:06.762Z,78.09
2018-09-15T17:19:35.890Z,77.88
2018-09-15T17:22:04.826Z,77.95
2018-09-15T17:24:34.073Z,78.27
2018-09-15T17:27:02.876Z,78.77
2018-09-15T17:29:31.648Z,79.08
2018-09-15T17:32:00.392Z,79.18
2018-09-15T17:34:29.259Z,79.36
2018-09-15T17:36:58.003Z,80.07
2018-09-15T17:39:26.738Z,79.83
2018-09-15T17:41:55.844Z,80.17
2018-09-15T17:44:24.524Z,80.79
2018-09-15T17:46:53.311Z,81.05
2018-09-15T17:49:22.232Z,81.44
2018-09-15T17:51:50.953Z,81.81
2018-09-15T17:54:20.085Z,81.86
2018-09-15T17:56:48.801Z,81.89
2018-09-15T17:59:17.548Z,82.17
2018-09-15T18:01:46.321Z,82.52
2018-09-15T18:04:15.045Z,82.41
2018-09-15T18:06:43.924Z,82.42
2018-09-15T18:09:12.805Z,82.59
2018-09-15T18:11:41.521Z,82.35
2018-09-15T18:14:10.257Z,82.74
2018-09-15T18:16:39.295Z,82.50
2018-09-15T18:19:08.138Z,82.57
2018-09-15T18:21:36.957Z,82.41
2018-09-15T18:24:05.720Z,82.51
2018-09-15T18:26:35.032Z,82.71
2018-09-15T18:29:03.771Z,82.42
2018-09-15T18:31:32.524Z,82.55
2018-09-15T18:34:01.492Z,82.59
2018-09-15T18:36:30.363Z,82.85
2018-09-15T18:38:59.068Z,82.87
2018-09-15T18:41:27.846Z,82.99
2018-09-15T18:43:56.699Z,83.26
2018-09-15T18:46:25.435Z,83.24
2018-09-15T18:48:54.917Z,83.32
2018-09-15T18:51:23.666Z,83.45
2018-09-15T18:53:52.544Z,83.40
2018-09-15T18:56:21.395Z,83.18
2018-09-15T18:58:50.169Z,83.18
2018-09-15T19:01:18.895Z,83.15
2018-09-15T19:03:47.580Z,83.18
2018-09-15T19:06:16.289Z,83.06
2018-09-15T19:08:45.034Z,83.08
2018-09-15T19:11:13.753Z,83.46
2018-09-15T19:13:42.450Z,83.26
2018-09-15T19:16:11.343Z,82.96
2018-09-15T19:18:40.091Z,83.09
2018-09-15T19:21:08.940Z,83.17
2018-09-15T19:23:37.617Z,83.00
2018-09-15T19:26:06.315Z,83.11
2018-09-15T19:28:35.121Z,83.13
2018-09-15T19:31:03.845Z,82.91
2018-09-15T19:33:32.548Z,83.22
2018-09-15T19:36:01.320Z,82.94
2018-09-15T19:38:30.142Z,83.40
2018-09-15T19:40:58.822Z,83.40
2018-09-15T19:43:27.544Z,83.18
2018-09-15T19:45:56.268Z,83.32
2018-09-15T19:48:24.936Z,83.21
2018-09-15T19:50:53.647Z,83.62
2018-09-15T19:53:22.316Z,83.52
2018-09-15T19:55:50.990Z,83.46
2018-09-15T19:58:19.688Z,83.64
2018-09-15T20:00:48.436Z,83.71
2018-09-15T20:03:17.081Z,83.91
2018-09-15T20:05:45.729Z,84.12
2018-09-15T20:08:14.422Z,84.30
2018-09-15T20:10:43.139Z,84.46
2018-09-15T20:13:11.861Z,84.53
2018-09-15T20:15:39.225Z,84.43
2018-09-15T20:18:06.567Z,84.66
2018-09-15T20:20:33.928Z,84.73
2018-09-15T20:23:02.650Z,85.11
2018-09-15T20:25:31.366Z,85.18
2018-09-15T20:28:00.087Z,85.60
2018-09-15T20:30:28.835Z,85.67
2018-09-15T20:32:57.572Z,85.65
2018-09-15T20:35:26.259Z,85.80
2018-09-15T20:37:54.927Z,86.05
2018-09-15T20:40:23.657Z,85.99
2018-09-15T20:42:52.321Z,86.58
2018-09-15T20:45:21.027Z,86.90
2018-09-15T20:47:49.781Z,86.95
2018-09-15T20:50:18.516Z,87.01
2018-09-15T20:52:47.240Z,87.06
2018-09-15T20:55:16.063Z,87.21
2018-09-15T20:57:44.899Z,87.60
2018-09-15T21:00:13.622Z,87.69
2018-09-15T21:02:42.643Z,87.81
2018-09-15T21:05:11.618Z,87.90
2018-09-15T21:07:40.310Z,87.94
2018-09-15T21:10:08.996Z,87.79
2018-09-15T21:12:37.772Z,88.07
2018-09-15T21:15:06.665Z,87.97
2018-09-15T21:17:35.381Z,88.22
2018-09-15T21:20:04.142Z,88.23
2018-09-15T21:22:32.833Z,88.28
2018-09-15T21:25:01.610Z,88.50
2018-09-15T21:27:30.361Z,88.45
2018-09-15T21:29:59.025Z,88.58
2018-09-15T21:32:27.684Z,88.49
2018-09-15T21:34:56.572Z,88.80
2018-09-15T21:37:25.196Z,89.05
2018-09-15T21:39:53.956Z,89.03
2018-09-15T21:42:22.621Z,89.05
2018-09-15T21:44:51.298Z,89.15
2018-09-15T21:47:20.038Z,89.24
2018-09-15T21:49:48.721Z,89.12
2018-09-15T21:52:17.380Z,89.15
2018-09-15T21:54:46.056Z,89.27
2018-09-15T21:57:14.793Z,89.15
2018-09-15T21:59:43.491Z,89.09
2018-09-15T22:02:12.168Z,89.25
2018-09-15T22:04:40.846Z,88.96
2018-09-15T22:07:09.546Z,88.80
2018-09-15T22:09:38.380Z,88.74
2018-09-15T22:12:07.032Z,88.72
2018-09-15T22:14:35.728Z,88.59
2018-09-15T22:17:04.476Z,88.33
2018-09-15T22:19:33.147Z,88.47
2018-09-15T22:22:01.924Z,88.16
2018-09-15T22:24:30.722Z,88.03
2018-09-15T22:26:59.419Z,88.04
2018-09-15T22:29:28.119Z,87.92
2018-09-15T22:31:56.859Z,87.83
2018-09-15T22:34:25.556Z,87.77
2018-09-15T22:36:54.287Z,87.75
2018-09-15T22:39:22.967Z,87.66
2018-09-15T22:41:51.724Z,87.60
2018-09-15T22:44:20.446Z,87.58
2018-09-15T22:46:49.123Z,87.56
2018-09-15T22:49:17.823Z,87.77
2018-09-15T22:51:46.500Z,87.55
2018-09-15T22:54:15.246Z,87.61
2018-09-15T22:56:43.919Z,87.58
2018-09-15T22:59:12.590Z,87.65
2018-09-15T23:01:41.318Z,87.80
2018-09-15T23:04:11.851Z,87.88
2018-09-15T23:06:40.619Z,87.88
2018-09-15T23:09:10.540Z,88.05
2018-09-15T23:11:39.271Z,88.09
2018-09-15T23:14:08.119Z,88.34
2018-09-15T23:16:36.831Z,88.45
2018-09-15T23:19:05.710Z,88.65
2018-09-15T23:21:34.353Z,88.61
2018-09-15T23:24:03.006Z,88.88
2018-09-15T23:26:31.765Z,89.12
2018-09-15T23:29:00.458Z,89.29
2018-09-15T23:31:30.136Z,89.37
2018-09-15T23:33:58.829Z,89.48
2018-09-15T23:36:27.456Z,89.54
2018-09-15T23:38:56.120Z,89.53
2018-09-15T23:41:24.788Z,89.86
2018-09-15T23:43:53.472Z,89.59
2018-09-15T23:46:22.265Z,89.78
2018-09-15T23:48:50.970Z,89.81
2018-09-15T23:51:19.624Z,89.95
2018-09-15T23:53:48.320Z,90.25
2018-09-15T23:56:16.973Z,90.23
2018-09-15T23:58:45.683Z,90.06
